createdAt,value
2023-01-06T00:01:35.515Z,5.07
2023-01-06T00:04:03.464Z,3.57
2023-01-06T00:06:31.466Z,6.17
2023-01-06T00:09:02.680Z,8.13
2023-01-06T00:11:30.804Z,9.33
2023-01-06T00:13:57.913Z,10.23
2023-01-06T00:16:25.259Z,7.83
2023-01-06T00:19:00.360Z,8.10
2023-01-06T00:21:28.586Z,10.07
2023-01-06T00:23:56.206Z,13.10
2023-01-06T00:26:23.733Z,13.10
2023-01-06T00:28:56.834Z,9.80
2023-01-06T00:31:24.236Z,14.47
2023-01-06T00:33:51.930Z,14.43
2023-01-06T00:36:18.984Z,14.97
2023-01-06T00:38:45.998Z,9.53
2023-01-06T00:41:33.202Z,8.63
2023-01-06T00:44:01.993Z,11.07
2023-01-06T00:46:31.726Z,8.47
2023-01-06T00:49:04.960Z,6.80
2023-01-06T00:51:35.704Z,6.60
2023-01-06T00:54:02.827Z,14.40
2023-01-06T00:56:30.020Z,11.83
2023-01-06T00:58:57.116Z,13.87
2023-01-06T01:01:24.307Z,11.53
2023-01-06T01:03:51.370Z,10.83
2023-01-06T01:06:18.488Z,11.30
2023-01-06T01:08:45.677Z,10.40
2023-01-06T01:11:36.379Z,7.43
2023-01-06T01:14:03.675Z,9.60
2023-01-06T01:16:31.593Z,5.27
2023-01-06T01:18:59.503Z,4.60
2023-01-06T01:21:26.546Z,7.43
2023-01-06T01:23:53.539Z,8.37
2023-01-06T01:26:20.667Z,12.87
2023-01-06T01:28:47.776Z,14.37
2023-01-06T01:31:16.256Z,15.40
2023-01-06T01:33:43.792Z,15.10
2023-01-06T01:36:15.131Z,13.27
2023-01-06T01:38:42.615Z,11.90
2023-01-06T01:41:17.951Z,9.17
2023-01-06T01:43:51.161Z,9.30
2023-01-06T01:46:28.537Z,7.30
2023-01-06T01:49:01.142Z,10.07
2023-01-06T01:51:39.478Z,10.27
2023-01-06T01:54:14.158Z,8.93
2023-01-06T01:56:46.242Z,13.03
2023-01-06T01:59:18.506Z,8.47
2023-01-06T02:01:47.244Z,9.73
2023-01-06T02:04:17.392Z,9.47
2023-01-06T02:06:46.280Z,7.33
2023-01-06T02:09:25.858Z,7.47
2023-01-06T02:11:52.978Z,9.50
2023-01-06T02:14:24.237Z,7.77
2023-01-06T02:17:20.966Z,12.00
2023-01-06T02:20:21.411Z,17.50
2023-01-06T02:23:15.129Z,17.83
2023-01-06T02:26:28.077Z,13.53
2023-01-06T02:29:24.926Z,10.50
2023-01-06T02:32:23.975Z,9.43
2023-01-06T02:35:30.408Z,13.50
2023-01-06T02:38:28.555Z,11.67
2023-01-06T02:41:38.231Z,8.77
2023-01-06T02:44:27.769Z,7.57
2023-01-06T02:46:54.657Z,6.77
2023-01-06T02:49:31.683Z,6.70
2023-01-06T02:52:09.969Z,4.47
2023-01-06T02:55:06.198Z,4.33
2023-01-06T02:57:57.356Z,5.97
2023-01-06T03:00:43.032Z,5.00
2023-01-06T03:03:21.010Z,5.57
2023-01-06T03:05:55.560Z,3.50
2023-01-06T03:08:28.481Z,4.13
2023-01-06T03:10:57.618Z,4.87
2023-01-06T03:13:47.145Z,4.60
2023-01-06T03:16:16.131Z,3.57
2023-01-06T03:18:45.416Z,4.23
2023-01-06T03:21:19.214Z,3.17
2023-01-06T03:23:46.964Z,3.33
2023-01-06T03:26:14.738Z,3.17
2023-01-06T03:28:41.870Z,3.90
2023-01-06T03:31:45.130Z,3.77
2023-01-06T03:34:41.683Z,3.67
2023-01-06T03:37:23.894Z,4.47
2023-01-06T03:40:26.083Z,3.27
2023-01-06T03:43:16.377Z,3.27
2023-01-06T03:46:17.064Z,3.77
2023-01-06T03:49:19.912Z,3.40
2023-01-06T03:51:54.841Z,4.30
2023-01-06T03:54:40.777Z,4.80
2023-01-06T03:57:16.968Z,3.13
2023-01-06T03:59:58.907Z,4.40
2023-01-06T04:02:27.974Z,4.17
2023-01-06T04:05:14.037Z,4.53
2023-01-06T04:07:43.362Z,4.00
2023-01-06T04:10:12.456Z,4.73
2023-01-06T04:12:40.268Z,3.20
2023-01-06T04:15:11.101Z,3.83
2023-01-06T04:17:42.889Z,4.33
2023-01-06T04:20:15.137Z,5.83
2023-01-06T04:22:42.683Z,5.43
2023-01-06T04:25:10.503Z,6.03
2023-01-06T04:27:37.545Z,4.50
2023-01-06T04:30:07.064Z,4.47
2023-01-06T04:32:34.251Z,4.97
2023-01-06T04:35:01.353Z,5.27
2023-01-06T04:37:28.369Z,3.40
2023-01-06T04:39:55.457Z,3.63
2023-01-06T04:42:22.478Z,3.90
2023-01-06T04:44:49.860Z,2.93
2023-01-06T04:47:16.998Z,3.47
2023-01-06T04:49:45.443Z,4.03
2023-01-06T04:52:12.457Z,2.83
2023-01-06T04:54:39.482Z,3.47
2023-01-06T04:57:06.520Z,3.33
2023-01-06T04:59:33.556Z,4.37
2023-01-06T05:02:00.646Z,3.10
2023-01-06T05:04:30.175Z,3.93
2023-01-06T05:07:01.141Z,2.83
2023-01-06T05:09:28.200Z,3.20
2023-01-06T05:11:55.231Z,3.80
2023-01-06T05:14:22.299Z,3.57
2023-01-06T05:16:49.272Z,4.20
2023-01-06T05:19:16.238Z,3.87
2023-01-06T05:21:43.242Z,4.50
2023-01-06T05:24:10.495Z,7.00
2023-01-06T05:26:37.507Z,7.63
2023-01-06T05:29:04.473Z,6.37
2023-01-06T05:31:31.527Z,5.13
2023-01-06T05:33:58.558Z,6.37
2023-01-06T05:36:25.638Z,5.50
2023-01-06T05:38:54.271Z,6.30
2023-01-06T05:41:21.573Z,5.67
2023-01-06T05:43:48.712Z,4.70
2023-01-06T05:46:15.909Z,6.63
2023-01-06T05:48:42.932Z,6.97
2023-01-06T05:51:15.226Z,7.73
2023-01-06T05:53:44.822Z,6.20
2023-01-06T05:56:16.729Z,7.00
2023-01-06T05:58:52.721Z,7.77
2023-01-06T06:01:28.917Z,9.20
2023-01-06T06:03:56.176Z,7.20
2023-01-06T06:06:25.873Z,5.50
2023-01-06T06:08:52.979Z,5.23
2023-01-06T06:11:22.271Z,4.13
2023-01-06T06:13:56.101Z,4.60
2023-01-06T06:16:26.446Z,5.43
2023-01-06T06:18:57.319Z,4.83
2023-01-06T06:21:28.983Z,7.70
2023-01-06T06:23:58.293Z,4.43
2023-01-06T06:26:26.526Z,3.80
2023-01-06T06:28:56.552Z,5.47
2023-01-06T06:31:29.537Z,4.17
2023-01-06T06:33:59.999Z,3.23
2023-01-06T06:36:27.469Z,4.93
2023-01-06T06:38:55.942Z,6.77
2023-01-06T06:41:25.597Z,4.83
2023-01-06T06:43:53.239Z,4.53
2023-01-06T06:46:21.376Z,3.90
2023-01-06T06:48:50.195Z,5.10
2023-01-06T06:51:21.003Z,5.30
2023-01-06T06:53:51.170Z,4.17
2023-01-06T06:56:21.467Z,4.97
2023-01-06T06:58:48.926Z,3.37
2023-01-06T07:01:19.003Z,4.90
2023-01-06T07:03:47.580Z,4.30
2023-01-06T07:06:19.975Z,3.73
2023-01-06T07:08:48.360Z,4.67
2023-01-06T07:11:15.708Z,3.53
2023-01-06T07:13:43.088Z,3.80
2023-01-06T07:16:10.980Z,4.07
2023-01-06T07:18:38.513Z,6.80
2023-01-06T07:21:06.417Z,5.00
2023-01-06T07:23:34.285Z,3.47
2023-01-06T07:26:02.352Z,2.97
2023-01-06T07:28:31.503Z,3.67
2023-01-06T07:30:59.072Z,5.97
2023-01-06T07:33:26.682Z,3.33
2023-01-06T07:35:55.978Z,3.60
2023-01-06T07:38:24.318Z,3.83
2023-01-06T07:40:51.916Z,4.63
2023-01-06T07:43:19.090Z,4.70
2023-01-06T07:45:49.361Z,8.53
2023-01-06T07:48:17.091Z,4.70
2023-01-06T07:50:44.463Z,6.80
2023-01-06T07:53:12.473Z,3.97
2023-01-06T07:55:39.528Z,4.50
2023-01-06T07:58:08.801Z,5.83
2023-01-06T08:00:36.573Z,8.43
2023-01-06T08:03:07.009Z,7.33
2023-01-06T08:05:42.030Z,5.73
2023-01-06T08:08:10.958Z,4.10
2023-01-06T08:10:42.987Z,5.77
2023-01-06T08:13:11.227Z,3.50
2023-01-06T08:15:40.212Z,3.80
2023-01-06T08:18:08.213Z,3.43
2023-01-06T08:20:35.433Z,4.73
2023-01-06T08:23:02.891Z,3.47
2023-01-06T08:25:29.974Z,4.03
2023-01-06T08:28:00.144Z,4.10
2023-01-06T08:30:27.879Z,5.57
2023-01-06T08:32:59.216Z,4.43
2023-01-06T08:35:26.745Z,3.57
2023-01-06T08:37:53.871Z,3.90
2023-01-06T08:40:21.123Z,3.83
2023-01-06T08:42:48.360Z,3.70
2023-01-06T08:45:15.532Z,4.33
2023-01-06T08:47:42.647Z,3.37
2023-01-06T08:50:09.751Z,4.07
2023-01-06T08:52:37.557Z,3.20
2023-01-06T08:55:05.164Z,4.40
2023-01-06T08:57:32.237Z,4.63
2023-01-06T08:59:59.407Z,5.30
2023-01-06T09:02:27.421Z,4.20
2023-01-06T09:04:54.700Z,3.70
2023-01-06T09:07:21.713Z,3.87
2023-01-06T09:09:48.841Z,3.23
2023-01-06T09:12:15.927Z,2.87
2023-01-06T09:14:42.949Z,3.67
2023-01-06T09:17:09.995Z,3.67
2023-01-06T09:19:36.974Z,5.43
2023-01-06T09:22:04.483Z,4.67
2023-01-06T09:24:31.531Z,4.13
2023-01-06T09:26:58.569Z,2.47
2023-01-06T09:29:25.593Z,4.13
2023-01-06T09:31:52.613Z,3.20
2023-01-06T09:34:19.648Z,6.23
2023-01-06T09:36:46.748Z,4.50
2023-01-06T09:39:13.758Z,3.67
2023-01-06T09:42:25.649Z,3.43
2023-01-06T09:45:06.448Z,6.27
2023-01-06T09:47:42.509Z,3.27
2023-01-06T09:50:45.794Z,3.10
2023-01-06T09:54:00.260Z,3.50
2023-01-06T09:56:27.610Z,5.80
2023-01-06T09:59:09.119Z,3.27
2023-01-06T10:01:46.078Z,4.40
2023-01-06T10:04:30.981Z,4.03
2023-01-06T10:07:19.937Z,3.70
2023-01-06T10:10:02.445Z,3.53
2023-01-06T10:13:03.835Z,3.83
2023-01-06T10:15:30.776Z,4.13
2023-01-06T10:18:21.845Z,4.37
2023-01-06T10:21:27.936Z,3.20
2023-01-06T10:24:01.942Z,3.80
2023-01-06T10:26:44.522Z,7.63
2023-01-06T10:29:20.969Z,6.73
2023-01-06T10:31:51.548Z,5.70
2023-01-06T10:34:24.619Z,4.13
2023-01-06T10:37:24.172Z,4.40
2023-01-06T10:40:14.324Z,5.20
2023-01-06T10:42:56.555Z,7.67
2023-01-06T10:45:46.400Z,6.07
2023-01-06T10:48:17.940Z,4.93
2023-01-06T10:50:45.121Z,10.90
2023-01-06T10:53:15.014Z,6.73
2023-01-06T10:55:55.066Z,6.13
2023-01-06T10:58:42.735Z,5.07
2023-01-06T11:01:23.673Z,5.20
2023-01-06T11:04:09.487Z,5.63
2023-01-06T11:06:43.742Z,3.77
2023-01-06T11:09:33.463Z,7.00
2023-01-06T11:12:10.687Z,5.40
2023-01-06T11:14:39.144Z,4.70
2023-01-06T11:17:16.083Z,5.57
2023-01-06T11:19:46.161Z,6.73
2023-01-06T11:22:39.764Z,5.47
2023-01-06T11:25:21.866Z,6.10
2023-01-06T11:28:24.458Z,6.13
2023-01-06T11:31:05.774Z,4.77
2023-01-06T11:33:36.691Z,6.90
2023-01-06T11:36:13.108Z,4.37
2023-01-06T11:38:49.867Z,5.13
2023-01-06T11:41:37.883Z,7.60
2023-01-06T11:44:36.772Z,5.90
2023-01-06T11:47:18.129Z,5.83
2023-01-06T11:49:55.959Z,7.07
2023-01-06T11:52:32.981Z,5.83
2023-01-06T11:55:07.828Z,5.60
2023-01-06T11:58:05.481Z,6.27
2023-01-06T12:01:00.025Z,6.13
2023-01-06T12:03:41.536Z,7.03
2023-01-06T12:06:37.977Z,5.97
2023-01-06T12:09:33.753Z,4.37
2023-01-06T12:12:07.737Z,4.80
2023-01-06T12:14:39.561Z,4.80
2023-01-06T12:17:18.134Z,6.10
2023-01-06T12:20:14.820Z,5.87
2023-01-06T12:23:12.445Z,6.37
2023-01-06T12:25:46.727Z,6.33
2023-01-06T12:28:19.319Z,8.50
2023-01-06T12:31:22.682Z,7.40
2023-01-06T12:34:24.717Z,8.43
2023-01-06T12:37:39.868Z,10.30
2023-01-06T12:40:30.467Z,9.93
2023-01-06T12:43:16.786Z,8.07
2023-01-06T12:45:59.519Z,9.10
2023-01-06T12:49:03.044Z,8.30
2023-01-06T12:51:48.411Z,10.10
2023-01-06T12:54:32.224Z,9.23
2023-01-06T12:57:23.737Z,9.47
2023-01-06T13:00:24.049Z,9.53
2023-01-06T13:03:35.832Z,7.83
2023-01-06T13:06:30.557Z,10.50
2023-01-06T13:09:18.550Z,9.70
2023-01-06T13:12:17.606Z,8.93
2023-01-06T13:15:03.805Z,7.83
2023-01-06T13:17:55.947Z,8.13
2023-01-06T13:20:49.808Z,10.17
2023-01-06T13:23:54.401Z,8.93
2023-01-06T13:27:14.530Z,8.23
2023-01-06T13:30:15.576Z,9.30
2023-01-06T13:33:17.113Z,8.77
2023-01-06T13:36:17.490Z,9.13
2023-01-06T13:39:12.653Z,8.60
2023-01-06T13:41:43.702Z,8.90
2023-01-06T13:44:20.594Z,9.47
2023-01-06T13:46:49.841Z,9.50
2023-01-06T13:49:17.039Z,9.67
2023-01-06T13:51:44.626Z,8.63
2023-01-06T13:55:05.404Z,8.80
2023-01-06T13:57:40.283Z,8.70
2023-01-06T14:00:07.182Z,12.10
2023-01-06T14:02:34.243Z,8.43
2023-01-06T14:05:22.494Z,10.33
2023-01-06T14:08:17.740Z,10.83
2023-01-06T14:10:46.742Z,10.80
2023-01-06T14:13:26.105Z,7.70
2023-01-06T14:16:14.038Z,8.20
2023-01-06T14:19:04.491Z,8.90
2023-01-06T14:21:31.847Z,8.67
2023-01-06T14:24:06.902Z,6.50
2023-01-06T14:27:01.341Z,8.00
2023-01-06T14:29:40.613Z,7.87
2023-01-06T14:32:11.734Z,10.03
2023-01-06T14:34:44.140Z,6.70
2023-01-06T14:37:17.144Z,8.13
2023-01-06T14:39:50.310Z,7.00
2023-01-06T14:42:38.864Z,7.43
2023-01-06T14:45:25.051Z,7.87
2023-01-06T14:47:56.561Z,14.87
2023-01-06T14:50:45.519Z,8.93
2023-01-06T14:53:35.923Z,12.03
2023-01-06T14:56:04.934Z,7.40
2023-01-06T14:58:36.901Z,9.47
2023-01-06T15:01:06.551Z,8.03
2023-01-06T15:03:34.921Z,9.07
2023-01-06T15:06:21.175Z,8.23
2023-01-06T15:08:48.850Z,8.53
2023-01-06T15:11:33.528Z,8.87
2023-01-06T15:14:00.555Z,7.00
2023-01-06T15:16:41.008Z,8.20
2023-01-06T15:19:15.832Z,8.40
2023-01-06T15:21:47.486Z,8.53
2023-01-06T15:24:23.501Z,11.40
2023-01-06T15:26:57.075Z,14.10
2023-01-06T15:29:26.739Z,10.07
2023-01-06T15:31:55.160Z,9.17
2023-01-06T15:34:34.967Z,10.07
2023-01-06T15:37:04.737Z,10.37
2023-01-06T15:39:33.941Z,8.57
2023-01-06T15:42:02.452Z,11.73
2023-01-06T15:44:32.317Z,11.87
2023-01-06T15:47:11.513Z,11.53
2023-01-06T15:49:49.077Z,9.40
2023-01-06T15:52:38.747Z,9.17
2023-01-06T15:55:18.170Z,9.30
2023-01-06T15:57:55.940Z,10.93
2023-01-06T16:00:27.252Z,9.53
2023-01-06T16:02:54.473Z,13.90
2023-01-06T16:05:36.374Z,11.77
2023-01-06T16:08:07.008Z,12.23
2023-01-06T16:10:38.846Z,9.20
2023-01-06T16:13:23.250Z,13.90
2023-01-06T16:15:55.516Z,13.87
2023-01-06T16:18:35.326Z,15.43
2023-01-06T16:21:24.905Z,13.13
2023-01-06T16:23:58.642Z,16.17
2023-01-06T16:26:32.833Z,17.07
2023-01-06T16:29:02.916Z,14.00
2023-01-06T16:31:36.325Z,13.63
2023-01-06T16:34:24.305Z,12.63
2023-01-06T16:36:56.451Z,13.90
2023-01-06T16:39:24.556Z,11.53
2023-01-06T16:42:00.757Z,11.20
2023-01-06T16:44:32.301Z,12.53
2023-01-06T16:47:00.669Z,15.20
2023-01-06T16:49:30.270Z,13.80
2023-01-06T16:51:57.411Z,12.47
2023-01-06T16:54:24.434Z,15.93
2023-01-06T16:56:52.454Z,13.53
2023-01-06T16:59:22.250Z,15.50
2023-01-06T17:01:49.524Z,14.87
2023-01-06T17:04:16.729Z,12.50
2023-01-06T17:06:45.834Z,13.43
2023-01-06T17:09:23.727Z,12.80
2023-01-06T17:11:52.971Z,15.13
2023-01-06T17:14:22.748Z,14.43
2023-01-06T17:16:53.446Z,15.87
2023-01-06T17:19:28.298Z,17.57
2023-01-06T17:22:26.355Z,17.57
2023-01-06T17:24:54.321Z,17.57
2023-01-06T17:27:30.017Z,17.23
2023-01-06T17:30:01.862Z,23.70
2023-01-06T17:32:35.107Z,20.03
2023-01-06T17:35:23.844Z,22.43
2023-01-06T17:37:50.853Z,21.60
2023-01-06T17:40:22.041Z,21.63
2023-01-06T17:43:00.919Z,23.00
2023-01-06T17:45:28.511Z,19.70
2023-01-06T17:47:56.793Z,23.50
2023-01-06T17:50:33.813Z,24.13
2023-01-06T17:53:35.163Z,22.30
2023-01-06T17:56:09.001Z,23.23
2023-01-06T17:58:44.084Z,24.47
2023-01-06T18:01:30.071Z,26.93
2023-01-06T18:04:00.068Z,24.07
2023-01-06T18:06:37.806Z,25.53
2023-01-06T18:09:09.872Z,23.70
2023-01-06T18:11:50.819Z,26.63
2023-01-06T18:14:25.200Z,26.93
2023-01-06T18:16:56.805Z,23.47
2023-01-06T18:19:32.776Z,31.37
2023-01-06T18:22:02.407Z,27.07
2023-01-06T18:24:39.161Z,28.07
2023-01-06T18:27:34.618Z,29.50
2023-01-06T18:30:15.188Z,27.07
2023-01-06T18:32:44.076Z,28.17
2023-01-06T18:35:28.675Z,26.07
2023-01-06T18:38:02.498Z,26.00
2023-01-06T18:40:31.575Z,28.70
2023-01-06T18:43:00.397Z,24.60
2023-01-06T18:45:36.244Z,24.80
2023-01-06T18:48:25.086Z,24.57
2023-01-06T18:50:53.880Z,25.80
2023-01-06T18:53:30.446Z,25.63
2023-01-06T18:56:03.922Z,25.97
2023-01-06T18:58:46.391Z,25.60
2023-01-06T19:01:37.113Z,24.03
2023-01-06T19:04:04.181Z,28.63
2023-01-06T19:07:12.155Z,29.87
2023-01-06T19:09:46.336Z,25.73
2023-01-06T19:12:33.545Z,27.73
2023-01-06T19:15:24.430Z,25.37
2023-01-06T19:17:52.173Z,23.70
2023-01-06T19:20:29.195Z,24.43
2023-01-06T19:22:57.171Z,24.63
2023-01-06T19:25:40.716Z,23.73
2023-01-06T19:28:31.301Z,23.43
2023-01-06T19:31:00.519Z,23.03
2023-01-06T19:34:03.165Z,23.63
2023-01-06T19:36:48.214Z,21.93
2023-01-06T19:39:28.565Z,22.23
2023-01-06T19:42:16.717Z,22.87
2023-01-06T19:44:44.389Z,24.97
2023-01-06T19:47:18.199Z,24.50
2023-01-06T19:49:52.726Z,24.50
2023-01-06T19:52:43.006Z,26.07
2023-01-06T19:55:22.548Z,23.63
2023-01-06T19:58:04.015Z,24.30
2023-01-06T20:00:38.213Z,26.40
2023-01-06T20:03:32.506Z,25.13
2023-01-06T20:05:59.870Z,22.10
2023-01-06T20:08:27.072Z,22.30
2023-01-06T20:10:55.134Z,23.33
2023-01-06T20:13:22.244Z,21.73
2023-01-06T20:15:49.313Z,20.57
2023-01-06T20:18:16.355Z,18.97
2023-01-06T20:20:43.378Z,21.60
2023-01-06T20:23:11.295Z,19.57
2023-01-06T20:25:38.309Z,17.87
2023-01-06T20:28:05.581Z,18.87
2023-01-06T20:30:32.596Z,18.70
2023-01-06T20:32:59.591Z,20.00
2023-01-06T20:35:26.651Z,16.47
2023-01-06T20:37:53.699Z,20.37
2023-01-06T20:40:21.327Z,18.27
2023-01-06T20:42:48.431Z,17.67
2023-01-06T20:45:15.516Z,19.60
2023-01-06T20:47:44.083Z,42.13
2023-01-06T20:50:13.862Z,30.40
2023-01-06T20:52:47.346Z,33.17
2023-01-06T20:55:16.650Z,29.40
2023-01-06T20:57:43.761Z,21.70
2023-01-06T21:00:12.988Z,22.97
2023-01-06T21:02:40.158Z,22.33
2023-01-06T21:05:08.032Z,18.20
2023-01-06T21:07:35.221Z,17.23
2023-01-06T21:10:04.202Z,19.20
2023-01-06T21:12:31.621Z,17.33
2023-01-06T21:14:58.591Z,16.23
2023-01-06T21:17:26.077Z,19.70
2023-01-06T21:19:53.122Z,18.70
2023-01-06T21:22:20.231Z,22.10
2023-01-06T21:24:47.211Z,20.60
2023-01-06T21:27:14.345Z,20.80
2023-01-06T21:29:41.663Z,18.77
2023-01-06T21:32:09.262Z,26.70
2023-01-06T21:34:36.299Z,25.37
2023-01-06T21:37:03.776Z,24.33
2023-01-06T21:39:30.995Z,22.30
2023-01-06T21:42:16.485Z,23.90
2023-01-06T21:44:43.517Z,23.50
2023-01-06T21:47:11.466Z,20.47
2023-01-06T21:49:42.017Z,21.47
2023-01-06T21:52:09.722Z,19.37
2023-01-06T21:54:36.807Z,18.73
2023-01-06T21:57:04.054Z,17.97
2023-01-06T21:59:31.709Z,22.60
2023-01-06T22:01:58.940Z,18.80
2023-01-06T22:04:26.091Z,19.73
2023-01-06T22:06:56.491Z,19.77
2023-01-06T22:09:24.359Z,21.07
2023-01-06T22:11:52.076Z,21.83
2023-01-06T22:14:19.534Z,19.40
2023-01-06T22:16:46.836Z,21.43
2023-01-06T22:19:15.702Z,19.80
2023-01-06T22:21:44.212Z,18.63
2023-01-06T22:24:13.700Z,19.83
2023-01-06T22:26:40.725Z,23.47
2023-01-06T22:29:08.332Z,24.87
2023-01-06T22:31:36.476Z,22.17
2023-01-06T22:34:03.942Z,20.90
2023-01-06T22:36:30.941Z,22.33
2023-01-06T22:38:57.977Z,22.43
2023-01-06T22:41:25.013Z,20.17
2023-01-06T22:43:52.052Z,24.33
2023-01-06T22:46:19.194Z,23.13
2023-01-06T22:48:46.470Z,22.93
2023-01-06T22:51:13.565Z,25.40
2023-01-06T22:53:40.594Z,22.20
2023-01-06T22:56:11.496Z,22.97
2023-01-06T22:58:40.945Z,25.43
2023-01-06T23:01:08.557Z,24.93
2023-01-06T23:03:36.750Z,27.23
2023-01-06T23:06:12.137Z,25.20
2023-01-06T23:08:50.966Z,25.10
2023-01-06T23:11:22.751Z,24.50
2023-01-06T23:13:55.521Z,23.27
2023-01-06T23:16:23.383Z,21.47
2023-01-06T23:18:50.605Z,25.30
2023-01-06T23:21:22.043Z,25.87
2023-01-06T23:23:50.348Z,24.30
2023-01-06T23:26:28.117Z,23.40
2023-01-06T23:28:57.029Z,25.17
2023-01-06T23:31:35.425Z,26.40
2023-01-06T23:34:17.615Z,23.53
2023-01-06T23:36:45.765Z,28.13
2023-01-06T23:39:16.915Z,26.10
2023-01-06T23:41:44.103Z,25.90
2023-01-06T23:44:16.681Z,28.60
2023-01-06T23:46:44.994Z,29.57
2023-01-06T23:49:15.767Z,25.80
2023-01-06T23:51:43.823Z,29.60
2023-01-06T23:54:12.212Z,24.60
2023-01-06T23:56:39.629Z,24.30
2023-01-06T23:59:10.104Z,28.33
